sensor_id;sensor_type;location;lat;lon;timestamp;temperature;humidity
65074;DHT22;52218;51.224;-2.328;2022-09-02T00:03:21;17.10;97.40
65074;DHT22;52218;51.224;-2.328;2022-09-02T00:07:03;17.00;97.50
65074;DHT22;52218;51.224;-2.328;2022-09-02T00:10:45;17.00;97.60
65074;DHT22;52218;51.224;-2.328;2022-09-02T00:14:34;16.90;97.80
65074;DHT22;52218;51.224;-2.328;2022-09-02T00:18:16;16.80;97.90
65074;DHT22;52218;51.224;-2.328;2022-09-02T00:22:00;16.80;98.00
65074;DHT22;52218;51.224;-2.328;2022-09-02T00:25:43;16.70;98.10
65074;DHT22;52218;51.224;-2.328;2022-09-02T00:29:26;16.70;98.30
65074;DHT22;52218;51.224;-2.328;2022-09-02T00:33:10;16.50;98.40
65074;DHT22;52218;51.224;-2.328;2022-09-02T00:36:52;16.50;98.40
65074;DHT22;52218;51.224;-2.328;2022-09-02T00:40:35;16.40;98.60
65074;DHT22;52218;51.224;-2.328;2022-09-02T00:44:18;16.30;98.70
65074;DHT22;52218;51.224;-2.328;2022-09-02T00:48:01;16.30;98.90
65074;DHT22;52218;51.224;-2.328;2022-09-02T00:51:53;16.20;99.10
65074;DHT22;52218;51.224;-2.328;2022-09-02T00:55:40;16.10;99.10
65074;DHT22;52218;51.224;-2.328;2022-09-02T00:59:45;16.10;99.40
65074;DHT22;52218;51.224;-2.328;2022-09-02T01:03:31;16.10;99.00
65074;DHT22;52218;51.224;-2.328;2022-09-02T01:07:13;16.00;99.40
65074;DHT22;52218;51.224;-2.328;2022-09-02T01:10:56;16.00;99.60
65074;DHT22;52218;51.224;-2.328;2022-09-02T01:14:38;15.90;99.80
65074;DHT22;52218;51.224;-2.328;2022-09-02T01:18:24;15.90;99.70
65074;DHT22;52218;51.224;-2.328;2022-09-02T01:22:23;15.90;99.80
65074;DHT22;52218;51.224;-2.328;2022-09-02T01:26:05;15.90;99.60
65074;DHT22;52218;51.224;-2.328;2022-09-02T01:29:53;15.90;99.90
65074;DHT22;52218;51.224;-2.328;2022-09-02T01:33:35;15.90;99.90
65074;DHT22;52218;51.224;-2.328;2022-09-02T01:37:18;15.90;99.90
65074;DHT22;52218;51.224;-2.328;2022-09-02T01:41:00;15.90;99.90
65074;DHT22;52218;51.224;-2.328;2022-09-02T01:44:43;15.90;99.90
65074;DHT22;52218;51.224;-2.328;2022-09-02T01:48:25;15.90;99.90
65074;DHT22;52218;51.224;-2.328;2022-09-02T01:52:08;16.00;99.90
65074;DHT22;52218;51.224;-2.328;2022-09-02T01:55:50;16.10;99.90
65074;DHT22;52218;51.224;-2.328;2022-09-02T01:59:32;16.10;99.90
65074;DHT22;52218;51.224;-2.328;2022-09-02T02:03:14;16.10;99.90
65074;DHT22;52218;51.224;-2.328;2022-09-02T02:06:56;16.10;99.90
65074;DHT22;52218;51.224;-2.328;2022-09-02T02:10:40;16.10;99.90
65074;DHT22;52218;51.224;-2.328;2022-09-02T02:14:23;16.00;99.90
65074;DHT22;52218;51.224;-2.328;2022-09-02T02:18:05;15.90;99.90
65074;DHT22;52218;51.224;-2.328;2022-09-02T02:21:48;15.80;99.90
65074;DHT22;52218;51.224;-2.328;2022-09-02T02:25:30;15.80;99.90
65074;DHT22;52218;51.224;-2.328;2022-09-02T02:29:13;15.80;99.90
65074;DHT22;52218;51.224;-2.328;2022-09-02T02:32:55;15.80;99.90
65074;DHT22;52218;51.224;-2.328;2022-09-02T02:36:38;15.80;99.90
65074;DHT22;52218;51.224;-2.328;2022-09-02T02:40:22;15.70;99.90
65074;DHT22;52218;51.224;-2.328;2022-09-02T02:44:05;15.80;99.90
65074;DHT22;52218;51.224;-2.328;2022-09-02T02:47:47;15.80;99.90
65074;DHT22;52218;51.224;-2.328;2022-09-02T02:51:30;15.80;99.90
65074;DHT22;52218;51.224;-2.328;2022-09-02T02:55:13;15.70;99.90
65074;DHT22;52218;51.224;-2.328;2022-09-02T02:58:55;15.70;99.90
65074;DHT22;52218;51.224;-2.328;2022-09-02T03:02:37;15.70;99.90
65074;DHT22;52218;51.224;-2.328;2022-09-02T03:06:20;15.60;99.90
65074;DHT22;52218;51.224;-2.328;2022-09-02T03:10:12;15.60;99.90
65074;DHT22;52218;51.224;-2.328;2022-09-02T03:13:54;15.50;99.90
65074;DHT22;52218;51.224;-2.328;2022-09-02T03:17:36;15.50;99.90
65074;DHT22;52218;51.224;-2.328;2022-09-02T03:21:18;15.50;99.90
65074;DHT22;52218;51.224;-2.328;2022-09-02T03:25:01;15.50;99.90
65074;DHT22;52218;51.224;-2.328;2022-09-02T03:28:43;15.50;99.90
65074;DHT22;52218;51.224;-2.328;2022-09-02T03:32:25;15.50;99.90
65074;DHT22;52218;51.224;-2.328;2022-09-02T03:36:27;15.50;99.90
65074;DHT22;52218;51.224;-2.328;2022-09-02T03:40:12;15.50;99.90
65074;DHT22;52218;51.224;-2.328;2022-09-02T03:43:54;15.50;99.90
65074;DHT22;52218;51.224;-2.328;2022-09-02T03:47:37;15.50;99.90
65074;DHT22;52218;51.224;-2.328;2022-09-02T03:51:25;15.40;99.90
65074;DHT22;52218;51.224;-2.328;2022-09-02T03:55:08;15.40;99.90
65074;DHT22;52218;51.224;-2.328;2022-09-02T03:58:51;15.30;99.90
65074;DHT22;52218;51.224;-2.328;2022-09-02T04:02:34;15.30;99.90
65074;DHT22;52218;51.224;-2.328;2022-09-02T04:06:18;15.30;99.90
65074;DHT22;52218;51.224;-2.328;2022-09-02T04:10:01;15.30;99.90
65074;DHT22;52218;51.224;-2.328;2022-09-02T04:13:44;15.30;99.90
65074;DHT22;52218;51.224;-2.328;2022-09-02T04:17:26;15.30;99.90
65074;DHT22;52218;51.224;-2.328;2022-09-02T04:21:09;15.30;99.90
65074;DHT22;52218;51.224;-2.328;2022-09-02T04:24:51;15.30;99.90
65074;DHT22;52218;51.224;-2.328;2022-09-02T04:28:33;15.30;99.90
65074;DHT22;52218;51.224;-2.328;2022-09-02T04:32:15;15.20;99.90
65074;DHT22;52218;51.224;-2.328;2022-09-02T04:35:57;15.20;99.90
65074;DHT22;52218;51.224;-2.328;2022-09-02T04:39:40;15.20;99.90
65074;DHT22;52218;51.224;-2.328;2022-09-02T04:43:22;15.10;99.90
65074;DHT22;52218;51.224;-2.328;2022-09-02T04:47:04;15.10;99.90
65074;DHT22;52218;51.224;-2.328;2022-09-02T04:50:46;15.00;99.90
65074;DHT22;52218;51.224;-2.328;2022-09-02T04:54:29;15.00;99.90
65074;DHT22;52218;51.224;-2.328;2022-09-02T04:58:11;15.00;99.90
65074;DHT22;52218;51.224;-2.328;2022-09-02T05:01:53;14.90;99.90
65074;DHT22;52218;51.224;-2.328;2022-09-02T05:05:35;14.90;99.90
65074;DHT22;52218;51.224;-2.328;2022-09-02T05:09:20;14.90;99.90
65074;DHT22;52218;51.224;-2.328;2022-09-02T05:13:02;14.90;99.90
65074;DHT22;52218;51.224;-2.328;2022-09-02T05:16:44;14.80;99.90
65074;DHT22;52218;51.224;-2.328;2022-09-02T05:20:26;14.80;99.90
65074;DHT22;52218;51.224;-2.328;2022-09-02T05:24:09;14.80;99.90
65074;DHT22;52218;51.224;-2.328;2022-09-02T05:27:51;14.80;99.90
65074;DHT22;52218;51.224;-2.328;2022-09-02T05:31:33;14.80;99.90
65074;DHT22;52218;51.224;-2.328;2022-09-02T05:35:15;14.80;99.90
65074;DHT22;52218;51.224;-2.328;2022-09-02T05:38:58;14.80;99.90
65074;DHT22;52218;51.224;-2.328;2022-09-02T05:42:41;14.70;99.90
65074;DHT22;52218;51.224;-2.328;2022-09-02T05:46:24;14.80;99.90
65074;DHT22;52218;51.224;-2.328;2022-09-02T05:50:07;14.70;99.90
65074;DHT22;52218;51.224;-2.328;2022-09-02T05:53:54;14.70;99.90
65074;DHT22;52218;51.224;-2.328;2022-09-02T05:57:36;14.70;99.90
65074;DHT22;52218;51.224;-2.328;2022-09-02T06:01:18;14.70;99.90
65074;DHT22;52218;51.224;-2.328;2022-09-02T06:05:00;14.80;99.90
65074;DHT22;52218;51.224;-2.328;2022-09-02T06:08:42;14.80;99.90
65074;DHT22;52218;51.224;-2.328;2022-09-02T06:12:24;14.80;99.90
65074;DHT22;52218;51.224;-2.328;2022-09-02T06:16:11;14.90;99.90
65074;DHT22;52218;51.224;-2.328;2022-09-02T06:19:54;14.90;99.90
65074;DHT22;52218;51.224;-2.328;2022-09-02T06:23:37;15.00;99.90
65074;DHT22;52218;51.224;-2.328;2022-09-02T06:27:22;15.00;99.90
65074;DHT22;52218;51.224;-2.328;2022-09-02T06:31:15;15.10;99.90
65074;DHT22;52218;51.224;-2.328;2022-09-02T06:34:57;15.20;99.90
65074;DHT22;52218;51.224;-2.328;2022-09-02T06:38:41;15.30;99.90
65074;DHT22;52218;51.224;-2.328;2022-09-02T06:42:26;15.40;99.90
65074;DHT22;52218;51.224;-2.328;2022-09-02T06:46:17;15.60;99.90
65074;DHT22;52218;51.224;-2.328;2022-09-02T06:50:00;15.70;99.90
65074;DHT22;52218;51.224;-2.328;2022-09-02T06:53:42;15.90;99.90
65074;DHT22;52218;51.224;-2.328;2022-09-02T06:57:24;16.00;99.90
65074;DHT22;52218;51.224;-2.328;2022-09-02T07:01:23;16.10;99.90
65074;DHT22;52218;51.224;-2.328;2022-09-02T07:05:06;16.30;99.90
65074;DHT22;52218;51.224;-2.328;2022-09-02T07:08:51;16.40;99.90
65074;DHT22;52218;51.224;-2.328;2022-09-02T07:12:35;16.60;99.90
65074;DHT22;52218;51.224;-2.328;2022-09-02T07:16:17;16.70;99.90
65074;DHT22;52218;51.224;-2.328;2022-09-02T07:20:08;16.90;99.90
65074;DHT22;52218;51.224;-2.328;2022-09-02T07:23:50;17.00;99.90
65074;DHT22;52218;51.224;-2.328;2022-09-02T07:27:33;17.10;99.90
65074;DHT22;52218;51.224;-2.328;2022-09-02T07:31:16;17.20;99.90
65074;DHT22;52218;51.224;-2.328;2022-09-02T07:34:58;17.30;99.90
65074;DHT22;52218;51.224;-2.328;2022-09-02T07:38:41;17.40;99.90
65074;DHT22;52218;51.224;-2.328;2022-09-02T07:42:23;17.50;99.90
65074;DHT22;52218;51.224;-2.328;2022-09-02T07:46:06;17.70;99.90
65074;DHT22;52218;51.224;-2.328;2022-09-02T07:49:48;17.90;99.90
65074;DHT22;52218;51.224;-2.328;2022-09-02T07:53:50;18.00;99.90
65074;DHT22;52218;51.224;-2.328;2022-09-02T07:57:32;18.30;99.90
65074;DHT22;52218;51.224;-2.328;2022-09-02T08:01:14;18.50;99.90
65074;DHT22;52218;51.224;-2.328;2022-09-02T08:05:01;18.70;99.90
65074;DHT22;52218;51.224;-2.328;2022-09-02T08:08:45;18.90;99.60
65074;DHT22;52218;51.224;-2.328;2022-09-02T08:12:28;19.10;99.40
65074;DHT22;52218;51.224;-2.328;2022-09-02T08:16:10;19.30;99.00
65074;DHT22;52218;51.224;-2.328;2022-09-02T08:19:52;19.40;98.60
65074;DHT22;52218;51.224;-2.328;2022-09-02T08:23:34;19.50;98.30
65074;DHT22;52218;51.224;-2.328;2022-09-02T08:27:18;19.60;98.00
65074;DHT22;52218;51.224;-2.328;2022-09-02T08:31:04;19.70;97.80
65074;DHT22;52218;51.224;-2.328;2022-09-02T08:34:46;19.80;97.80
65074;DHT22;52218;51.224;-2.328;2022-09-02T08:38:28;19.80;97.60
65074;DHT22;52218;51.224;-2.328;2022-09-02T08:46:12;20.00;97.60
65074;DHT22;52218;51.224;-2.328;2022-09-02T08:50:00;20.10;97.30
65074;DHT22;52218;51.224;-2.328;2022-09-02T08:57:35;20.40;96.90
65074;DHT22;52218;51.224;-2.328;2022-09-02T09:01:52;20.70;97.00
65074;DHT22;52218;51.224;-2.328;2022-09-02T09:06:07;21.40;96.30
65074;DHT22;52218;51.224;-2.328;2022-09-02T09:10:34;22.00;95.10
65074;DHT22;52218;51.224;-2.328;2022-09-02T09:17:59;22.40;93.90
65074;DHT22;52218;51.224;-2.328;2022-09-02T09:21:43;22.60;94.10
65074;DHT22;52218;51.224;-2.328;2022-09-02T09:25:27;22.90;94.00
65074;DHT22;52218;51.224;-2.328;2022-09-02T09:29:13;23.40;92.80
65074;DHT22;52218;51.224;-2.328;2022-09-02T09:32:57;23.80;92.50
65074;DHT22;52218;51.224;-2.328;2022-09-02T09:40:31;23.70;92.80
65074;DHT22;52218;51.224;-2.328;2022-09-02T09:48:26;23.90;92.50
65074;DHT22;52218;51.224;-2.328;2022-09-02T09:52:08;23.90;91.90
65074;DHT22;52218;51.224;-2.328;2022-09-02T09:56:00;23.90;92.30
65074;DHT22;52218;51.224;-2.328;2022-09-02T09:59:45;23.90;92.30
65074;DHT22;52218;51.224;-2.328;2022-09-02T10:03:29;23.90;91.70
65074;DHT22;52218;51.224;-2.328;2022-09-02T10:07:14;23.90;91.90
65074;DHT22;52218;51.224;-2.328;2022-09-02T10:11:24;23.90;92.00
65074;DHT22;52218;51.224;-2.328;2022-09-02T10:15:06;24.10;91.70
65074;DHT22;52218;51.224;-2.328;2022-09-02T10:18:55;24.50;90.90
65074;DHT22;52218;51.224;-2.328;2022-09-02T10:23:11;25.20;90.00
65074;DHT22;52218;51.224;-2.328;2022-09-02T10:26:57;26.40;89.00
65074;DHT22;52218;51.224;-2.328;2022-09-02T10:30:49;27.00;85.70
65074;DHT22;52218;51.224;-2.328;2022-09-02T10:38:45;27.40;85.70
65074;DHT22;52218;51.224;-2.328;2022-09-02T10:47:01;27.70;84.90
65074;DHT22;52218;51.224;-2.328;2022-09-02T10:50:59;28.80;83.30
65074;DHT22;52218;51.224;-2.328;2022-09-02T10:55:15;30.00;81.20
65074;DHT22;52218;51.224;-2.328;2022-09-02T10:59:07;31.30;78.20
65074;DHT22;52218;51.224;-2.328;2022-09-02T11:03:13;31.90;71.20
65074;DHT22;52218;51.224;-2.328;2022-09-02T11:06:57;31.90;74.00
65074;DHT22;52218;51.224;-2.328;2022-09-02T11:10:53;31.60;70.50
65074;DHT22;52218;51.224;-2.328;2022-09-02T11:15:04;31.40;70.00
65074;DHT22;52218;51.224;-2.328;2022-09-02T11:19:09;31.20;73.00
65074;DHT22;52218;51.224;-2.328;2022-09-02T11:23:33;31.20;69.60
65074;DHT22;52218;51.224;-2.328;2022-09-02T11:27:33;31.00;68.20
65074;DHT22;52218;51.224;-2.328;2022-09-02T11:35:17;31.10;64.40
65074;DHT22;52218;51.224;-2.328;2022-09-02T11:55:42;32.70;61.50
65074;DHT22;52218;51.224;-2.328;2022-09-02T12:03:33;33.20;59.20
65074;DHT22;52218;51.224;-2.328;2022-09-02T12:07:48;33.20;56.70
65074;DHT22;52218;51.224;-2.328;2022-09-02T12:11:46;32.80;58.80
65074;DHT22;52218;51.224;-2.328;2022-09-02T12:15:29;32.50;57.90
65074;DHT22;52218;51.224;-2.328;2022-09-02T12:22:53;32.00;55.20
65074;DHT22;52218;51.224;-2.328;2022-09-02T12:34:52;30.90;57.40
65074;DHT22;52218;51.224;-2.328;2022-09-02T12:38:39;31.30;54.10
65074;DHT22;52218;51.224;-2.328;2022-09-02T12:42:27;31.40;54.00
65074;DHT22;52218;51.224;-2.328;2022-09-02T12:54:07;32.70;51.80
65074;DHT22;52218;51.224;-2.328;2022-09-02T12:57:54;32.50;51.40
65074;DHT22;52218;51.224;-2.328;2022-09-02T13:01:47;32.30;50.80
65074;DHT22;52218;51.224;-2.328;2022-09-02T13:06:23;31.80;51.60
65074;DHT22;52218;51.224;-2.328;2022-09-02T13:10:31;31.30;54.10
65074;DHT22;52218;51.224;-2.328;2022-09-02T13:34:46;32.60;49.90
65074;DHT22;52218;51.224;-2.328;2022-09-02T13:38:29;33.00;48.80
65074;DHT22;52218;51.224;-2.328;2022-09-02T13:42:17;33.60;47.50
65074;DHT22;52218;51.224;-2.328;2022-09-02T13:46:04;34.10;46.60
65074;DHT22;52218;51.224;-2.328;2022-09-02T13:49:48;34.60;44.90
65074;DHT22;52218;51.224;-2.328;2022-09-02T13:53:37;34.90;45.00
65074;DHT22;52218;51.224;-2.328;2022-09-02T13:57:44;35.20;43.60
65074;DHT22;52218;51.224;-2.328;2022-09-02T14:01:28;35.70;43.80
65074;DHT22;52218;51.224;-2.328;2022-09-02T14:05:19;35.90;42.60
65074;DHT22;52218;51.224;-2.328;2022-09-02T14:09:05;36.20;42.60
65074;DHT22;52218;51.224;-2.328;2022-09-02T14:12:48;36.50;42.10
65074;DHT22;52218;51.224;-2.328;2022-09-02T14:16:33;36.70;41.60
65074;DHT22;52218;51.224;-2.328;2022-09-02T14:20:22;36.80;41.60
65074;DHT22;52218;51.224;-2.328;2022-09-02T14:24:04;36.80;41.60
65074;DHT22;52218;51.224;-2.328;2022-09-02T14:27:56;36.80;40.80
65074;DHT22;52218;51.224;-2.328;2022-09-02T14:31:38;36.90;40.70
65074;DHT22;52218;51.224;-2.328;2022-09-02T14:35:22;37.00;40.50
65074;DHT22;52218;51.224;-2.328;2022-09-02T14:39:15;36.70;40.40
65074;DHT22;52218;51.224;-2.328;2022-09-02T14:42:58;36.50;41.40
65074;DHT22;52218;51.224;-2.328;2022-09-02T14:46:54;36.20;41.60
65074;DHT22;52218;51.224;-2.328;2022-09-02T14:50:38;36.20;41.20
65074;DHT22;52218;51.224;-2.328;2022-09-02T14:54:42;36.20;41.20
65074;DHT22;52218;51.224;-2.328;2022-09-02T14:58:26;36.10;42.00
65074;DHT22;52218;51.224;-2.328;2022-09-02T15:02:23;36.00;39.70
65074;DHT22;52218;51.224;-2.328;2022-09-02T15:06:05;35.80;41.30
65074;DHT22;52218;51.224;-2.328;2022-09-02T15:09:47;35.50;40.00
65074;DHT22;52218;51.224;-2.328;2022-09-02T15:13:32;35.20;40.40
65074;DHT22;52218;51.224;-2.328;2022-09-02T15:17:14;34.70;41.60
65074;DHT22;52218;51.224;-2.328;2022-09-02T15:20:56;34.30;42.00
65074;DHT22;52218;51.224;-2.328;2022-09-02T15:24:39;34.20;41.80
65074;DHT22;52218;51.224;-2.328;2022-09-02T15:28:20;34.10;42.40
65074;DHT22;52218;51.224;-2.328;2022-09-02T15:32:03;33.90;42.40
65074;DHT22;52218;51.224;-2.328;2022-09-02T15:35:45;33.20;42.30
65074;DHT22;52218;51.224;-2.328;2022-09-02T15:39:28;32.50;42.60
65074;DHT22;52218;51.224;-2.328;2022-09-02T15:43:11;31.80;43.00
65074;DHT22;52218;51.224;-2.328;2022-09-02T15:46:54;31.20;44.20
65074;DHT22;52218;51.224;-2.328;2022-09-02T15:50:36;30.80;44.40
65074;DHT22;52218;51.224;-2.328;2022-09-02T15:54:21;30.40;44.70
65074;DHT22;52218;51.224;-2.328;2022-09-02T15:58:03;30.00;45.40
65074;DHT22;52218;51.224;-2.328;2022-09-02T16:01:50;29.60;46.00
65074;DHT22;52218;51.224;-2.328;2022-09-02T16:05:32;29.40;46.80
65074;DHT22;52218;51.224;-2.328;2022-09-02T16:09:16;29.20;46.60
65074;DHT22;52218;51.224;-2.328;2022-09-02T16:12:58;29.10;47.40
65074;DHT22;52218;51.224;-2.328;2022-09-02T16:16:41;28.90;46.50
65074;DHT22;52218;51.224;-2.328;2022-09-02T16:20:23;28.80;47.30
65074;DHT22;52218;51.224;-2.328;2022-09-02T16:24:07;28.70;48.30
65074;DHT22;52218;51.224;-2.328;2022-09-02T16:27:49;28.70;48.20
65074;DHT22;52218;51.224;-2.328;2022-09-02T16:31:36;28.70;48.50
65074;DHT22;52218;51.224;-2.328;2022-09-02T16:35:18;28.80;48.90
65074;DHT22;52218;51.224;-2.328;2022-09-02T16:39:01;28.70;49.20
65074;DHT22;52218;51.224;-2.328;2022-09-02T16:42:43;28.50;49.10
65074;DHT22;52218;51.224;-2.328;2022-09-02T16:46:26;28.30;49.00
65074;DHT22;52218;51.224;-2.328;2022-09-02T16:50:09;28.00;49.70
65074;DHT22;52218;51.224;-2.328;2022-09-02T16:53:58;27.70;50.20
65074;DHT22;52218;51.224;-2.328;2022-09-02T16:57:40;27.40;51.30
65074;DHT22;52218;51.224;-2.328;2022-09-02T17:01:22;27.20;51.30
65074;DHT22;52218;51.224;-2.328;2022-09-02T17:05:05;26.90;51.90
65074;DHT22;52218;51.224;-2.328;2022-09-02T17:08:48;26.70;52.00
65074;DHT22;52218;51.224;-2.328;2022-09-02T17:12:31;26.60;51.80
65074;DHT22;52218;51.224;-2.328;2022-09-02T17:16:12;26.50;52.60
65074;DHT22;52218;51.224;-2.328;2022-09-02T17:19:54;26.40;52.10
65074;DHT22;52218;51.224;-2.328;2022-09-02T17:23:36;26.40;52.30
65074;DHT22;52218;51.224;-2.328;2022-09-02T17:27:18;26.30;52.70
65074;DHT22;52218;51.224;-2.328;2022-09-02T17:31:00;26.30;53.00
65074;DHT22;52218;51.224;-2.328;2022-09-02T17:34:48;26.20;54.30
65074;DHT22;52218;51.224;-2.328;2022-09-02T17:38:30;26.00;54.80
65074;DHT22;52218;51.224;-2.328;2022-09-02T17:42:12;25.90;55.60
65074;DHT22;52218;51.224;-2.328;2022-09-02T17:46:04;25.70;56.00
65074;DHT22;52218;51.224;-2.328;2022-09-02T17:49:47;25.50;56.40
65074;DHT22;52218;51.224;-2.328;2022-09-02T17:53:29;25.30;57.10
65074;DHT22;52218;51.224;-2.328;2022-09-02T18:01:25;24.90;57.80
65074;DHT22;52218;51.224;-2.328;2022-09-02T18:08:57;24.40;60.00
65074;DHT22;52218;51.224;-2.328;2022-09-02T18:12:41;24.20;60.80
65074;DHT22;52218;51.224;-2.328;2022-09-02T18:16:46;23.90;61.30
65074;DHT22;52218;51.224;-2.328;2022-09-02T18:20:41;23.80;61.80
65074;DHT22;52218;51.224;-2.328;2022-09-02T18:24:57;23.60;62.10
65074;DHT22;52218;51.224;-2.328;2022-09-02T18:48:31;22.80;65.10
65074;DHT22;52218;51.224;-2.328;2022-09-02T18:52:13;22.70;64.70
65074;DHT22;52218;51.224;-2.328;2022-09-02T18:56:04;22.60;66.40
65074;DHT22;52218;51.224;-2.328;2022-09-02T19:03:36;22.40;67.20
65074;DHT22;52218;51.224;-2.328;2022-09-02T19:07:19;22.30;67.70
65074;DHT22;52218;51.224;-2.328;2022-09-02T19:11:20;22.20;68.40
65074;DHT22;52218;51.224;-2.328;2022-09-02T19:15:09;22.00;69.00
65074;DHT22;52218;51.224;-2.328;2022-09-02T19:18:54;21.90;69.80
65074;DHT22;52218;51.224;-2.328;2022-09-02T19:22:38;21.80;70.00
65074;DHT22;52218;51.224;-2.328;2022-09-02T19:26:22;21.70;70.50
65074;DHT22;52218;51.224;-2.328;2022-09-02T19:30:07;21.60;71.60
65074;DHT22;52218;51.224;-2.328;2022-09-02T19:33:51;21.60;72.00
65074;DHT22;52218;51.224;-2.328;2022-09-02T19:37:35;21.50;72.30
65074;DHT22;52218;51.224;-2.328;2022-09-02T19:41:25;21.40;72.30
65074;DHT22;52218;51.224;-2.328;2022-09-02T19:45:08;21.40;72.20
65074;DHT22;52218;51.224;-2.328;2022-09-02T19:48:56;21.30;72.70
65074;DHT22;52218;51.224;-2.328;2022-09-02T19:52:39;21.20;73.20
65074;DHT22;52218;51.224;-2.328;2022-09-02T19:56:22;21.20;73.70
65074;DHT22;52218;51.224;-2.328;2022-09-02T20:00:04;21.10;74.60
65074;DHT22;52218;51.224;-2.328;2022-09-02T20:03:48;21.10;75.30
65074;DHT22;52218;51.224;-2.328;2022-09-02T20:07:30;21.00;74.60
65074;DHT22;52218;51.224;-2.328;2022-09-02T20:11:12;21.00;75.00
65074;DHT22;52218;51.224;-2.328;2022-09-02T20:14:54;20.90;75.30
65074;DHT22;52218;51.224;-2.328;2022-09-02T20:18:40;20.90;75.70
65074;DHT22;52218;51.224;-2.328;2022-09-02T20:22:25;20.90;76.10
65074;DHT22;52218;51.224;-2.328;2022-09-02T20:26:38;20.90;77.00
65074;DHT22;52218;51.224;-2.328;2022-09-02T20:30:21;20.80;76.10
65074;DHT22;52218;51.224;-2.328;2022-09-02T20:34:14;20.80;77.60
65074;DHT22;52218;51.224;-2.328;2022-09-02T20:50:24;20.60;79.00
65074;DHT22;52218;51.224;-2.328;2022-09-02T21:01:59;20.40;83.20
65074;DHT22;52218;51.224;-2.328;2022-09-02T21:05:50;20.40;83.90
65074;DHT22;52218;51.224;-2.328;2022-09-02T21:10:08;20.30;84.20
65074;DHT22;52218;51.224;-2.328;2022-09-02T21:14:11;20.20;83.00
65074;DHT22;52218;51.224;-2.328;2022-09-02T21:21:53;19.90;86.30
65074;DHT22;52218;51.224;-2.328;2022-09-02T21:25:46;19.80;86.40
65074;DHT22;52218;51.224;-2.328;2022-09-02T21:33:32;19.50;88.60
65074;DHT22;52218;51.224;-2.328;2022-09-02T21:37:16;19.40;90.50
65074;DHT22;52218;51.224;-2.328;2022-09-02T22:01:28;18.90;94.50
65074;DHT22;52218;51.224;-2.328;2022-09-02T22:05:33;18.80;94.80
65074;DHT22;52218;51.224;-2.328;2022-09-02T22:09:23;18.80;95.50
65074;DHT22;52218;51.224;-2.328;2022-09-02T22:13:06;18.70;95.90
65074;DHT22;52218;51.224;-2.328;2022-09-02T22:16:54;18.60;96.30
65074;DHT22;52218;51.224;-2.328;2022-09-02T22:20:42;18.60;96.50
65074;DHT22;52218;51.224;-2.328;2022-09-02T22:24:28;18.60;96.80
65074;DHT22;52218;51.224;-2.328;2022-09-02T22:28:46;18.60;96.90
65074;DHT22;52218;51.224;-2.328;2022-09-02T22:32:38;18.60;95.60
65074;DHT22;52218;51.224;-2.328;2022-09-02T22:40:12;18.70;97.00
65074;DHT22;52218;51.224;-2.328;2022-09-02T22:44:34;18.70;97.10
65074;DHT22;52218;51.224;-2.328;2022-09-02T22:48:39;18.80;96.40
65074;DHT22;52218;51.224;-2.328;2022-09-02T22:52:42;18.80;96.90
65074;DHT22;52218;51.224;-2.328;2022-09-02T22:56:40;18.80;96.70
65074;DHT22;52218;51.224;-2.328;2022-09-02T23:00:23;18.80;96.40
65074;DHT22;52218;51.224;-2.328;2022-09-02T23:07:53;18.70;96.80
65074;DHT22;52218;51.224;-2.328;2022-09-02T23:15:34;18.60;97.30
65074;DHT22;52218;51.224;-2.328;2022-09-02T23:23:38;18.50;97.60
65074;DHT22;52218;51.224;-2.328;2022-09-02T23:39:45;18.30;97.70
65074;DHT22;52218;51.224;-2.328;2022-09-02T23:43:32;18.30;97.90
